sensor_id;sensor_type;location;lat;lon;timestamp;temperature;humidity
48994;DHT22;34804;49.214;12.276;2023-12-29T00:00:49;6.90;85.60
48994;DHT22;34804;49.214;12.276;2023-12-29T00:03:16;6.80;85.90
48994;DHT22;34804;49.214;12.276;2023-12-29T00:05:43;6.80;86.10
48994;DHT22;34804;49.214;12.276;2023-12-29T00:08:10;6.80;86.20
48994;DHT22;34804;49.214;12.276;2023-12-29T00:10:36;6.80;86.10
48994;DHT22;34804;49.214;12.276;2023-12-29T00:13:03;6.80;86.20
48994;DHT22;34804;49.214;12.276;2023-12-29T00:15:30;6.80;86.20
48994;DHT22;34804;49.214;12.276;2023-12-29T00:17:57;6.80;86.10
48994;DHT22;34804;49.214;12.276;2023-12-29T00:20:25;6.80;86.10
48994;DHT22;34804;49.214;12.276;2023-12-29T00:23:06;6.80;86.10
48994;DHT22;34804;49.214;12.276;2023-12-29T00:25:36;6.80;85.90
48994;DHT22;34804;49.214;12.276;2023-12-29T00:28:04;6.80;86.00
48994;DHT22;34804;49.214;12.276;2023-12-29T00:30:31;6.90;85.90
48994;DHT22;34804;49.214;12.276;2023-12-29T00:33:18;6.90;86.10
48994;DHT22;34804;49.214;12.276;2023-12-29T00:35:45;6.90;86.10
48994;DHT22;34804;49.214;12.276;2023-12-29T00:38:12;6.80;86.20
48994;DHT22;34804;49.214;12.276;2023-12-29T00:40:38;6.90;86.00
48994;DHT22;34804;49.214;12.276;2023-12-29T00:43:05;6.90;85.80
48994;DHT22;34804;49.214;12.276;2023-12-29T00:45:32;6.90;86.20
48994;DHT22;34804;49.214;12.276;2023-12-29T00:48:02;6.90;86.20
48994;DHT22;34804;49.214;12.276;2023-12-29T00:50:30;6.90;86.30
48994;DHT22;34804;49.214;12.276;2023-12-29T00:52:57;6.80;86.40
48994;DHT22;34804;49.214;12.276;2023-12-29T00:55:24;6.90;86.40
48994;DHT22;34804;49.214;12.276;2023-12-29T00:57:51;6.90;86.10
48994;DHT22;34804;49.214;12.276;2023-12-29T01:00:17;6.90;86.20
48994;DHT22;34804;49.214;12.276;2023-12-29T01:02:44;6.90;86.10
48994;DHT22;34804;49.214;12.276;2023-12-29T01:05:16;6.90;86.40
48994;DHT22;34804;49.214;12.276;2023-12-29T01:07:44;6.90;86.60
48994;DHT22;34804;49.214;12.276;2023-12-29T01:10:11;6.90;86.50
48994;DHT22;34804;49.214;12.276;2023-12-29T01:12:38;6.90;86.40
48994;DHT22;34804;49.214;12.276;2023-12-29T01:15:05;6.90;86.40
48994;DHT22;34804;49.214;12.276;2023-12-29T01:17:32;6.90;86.50
48994;DHT22;34804;49.214;12.276;2023-12-29T01:20:00;6.90;86.60
48994;DHT22;34804;49.214;12.276;2023-12-29T01:22:28;6.90;86.70
48994;DHT22;34804;49.214;12.276;2023-12-29T01:24:54;6.90;86.70
48994;DHT22;34804;49.214;12.276;2023-12-29T01:27:21;6.90;86.70
48994;DHT22;34804;49.214;12.276;2023-12-29T01:29:48;6.90;86.70
48994;DHT22;34804;49.214;12.276;2023-12-29T01:32:15;6.90;86.80
48994;DHT22;34804;49.214;12.276;2023-12-29T01:34:42;6.90;86.70
48994;DHT22;34804;49.214;12.276;2023-12-29T01:37:09;7.00;86.70
48994;DHT22;34804;49.214;12.276;2023-12-29T01:39:36;7.00;86.50
48994;DHT22;34804;49.214;12.276;2023-12-29T01:42:03;7.00;86.50
48994;DHT22;34804;49.214;12.276;2023-12-29T01:44:31;7.00;86.70
48994;DHT22;34804;49.214;12.276;2023-12-29T01:47:03;7.00;86.40
48994;DHT22;34804;49.214;12.276;2023-12-29T01:49:33;7.10;86.20
48994;DHT22;34804;49.214;12.276;2023-12-29T01:52:01;7.10;86.30
48994;DHT22;34804;49.214;12.276;2023-12-29T01:54:32;7.10;85.90
48994;DHT22;34804;49.214;12.276;2023-12-29T01:57:01;7.10;85.80
48994;DHT22;34804;49.214;12.276;2023-12-29T01:59:29;7.10;85.90
48994;DHT22;34804;49.214;12.276;2023-12-29T02:01:56;7.10;86.00
48994;DHT22;34804;49.214;12.276;2023-12-29T02:04:24;7.10;85.70
48994;DHT22;34804;49.214;12.276;2023-12-29T02:06:52;7.10;85.70
48994;DHT22;34804;49.214;12.276;2023-12-29T02:09:19;7.10;85.80
48994;DHT22;34804;49.214;12.276;2023-12-29T02:11:46;7.20;85.80
48994;DHT22;34804;49.214;12.276;2023-12-29T02:14:17;7.20;85.90
48994;DHT22;34804;49.214;12.276;2023-12-29T02:17:15;7.20;86.00
48994;DHT22;34804;49.214;12.276;2023-12-29T02:19:45;7.20;86.10
48994;DHT22;34804;49.214;12.276;2023-12-29T02:22:13;7.20;85.40
48994;DHT22;34804;49.214;12.276;2023-12-29T02:24:47;7.20;85.40
48994;DHT22;34804;49.214;12.276;2023-12-29T02:27:23;7.30;85.50
48994;DHT22;34804;49.214;12.276;2023-12-29T02:32:44;7.30;85.50
48994;DHT22;34804;49.214;12.276;2023-12-29T02:35:23;7.30;85.70
48994;DHT22;34804;49.214;12.276;2023-12-29T02:37:50;7.30;85.70
48994;DHT22;34804;49.214;12.276;2023-12-29T02:40:17;7.30;85.80
48994;DHT22;34804;49.214;12.276;2023-12-29T02:42:49;7.30;85.50
48994;DHT22;34804;49.214;12.276;2023-12-29T02:45:16;7.30;85.30
48994;DHT22;34804;49.214;12.276;2023-12-29T02:47:44;7.30;85.30
48994;DHT22;34804;49.214;12.276;2023-12-29T02:50:11;7.20;85.50
48994;DHT22;34804;49.214;12.276;2023-12-29T02:52:38;7.20;85.40
48994;DHT22;34804;49.214;12.276;2023-12-29T02:55:05;7.00;85.70
48994;DHT22;34804;49.214;12.276;2023-12-29T02:57:32;6.90;86.00
48994;DHT22;34804;49.214;12.276;2023-12-29T02:59:59;6.90;85.90
48994;DHT22;34804;49.214;12.276;2023-12-29T03:02:26;6.90;86.00
48994;DHT22;34804;49.214;12.276;2023-12-29T03:04:52;6.90;86.10
48994;DHT22;34804;49.214;12.276;2023-12-29T03:07:19;7.00;86.20
48994;DHT22;34804;49.214;12.276;2023-12-29T03:09:46;6.90;86.20
48994;DHT22;34804;49.214;12.276;2023-12-29T03:12:14;7.00;85.90
48994;DHT22;34804;49.214;12.276;2023-12-29T03:14:41;7.10;85.90
48994;DHT22;34804;49.214;12.276;2023-12-29T03:17:07;7.10;85.80
48994;DHT22;34804;49.214;12.276;2023-12-29T03:19:34;7.20;85.60
48994;DHT22;34804;49.214;12.276;2023-12-29T03:22:02;7.20;85.10
48994;DHT22;34804;49.214;12.276;2023-12-29T03:24:29;7.30;85.20
48994;DHT22;34804;49.214;12.276;2023-12-29T03:26:57;7.30;85.20
48994;DHT22;34804;49.214;12.276;2023-12-29T03:29:23;7.30;85.10
48994;DHT22;34804;49.214;12.276;2023-12-29T03:31:50;7.30;85.10
48994;DHT22;34804;49.214;12.276;2023-12-29T03:34:17;7.30;85.30
48994;DHT22;34804;49.214;12.276;2023-12-29T03:36:44;7.30;85.20
48994;DHT22;34804;49.214;12.276;2023-12-29T03:39:11;7.40;85.00
48994;DHT22;34804;49.214;12.276;2023-12-29T03:41:38;7.30;84.90
48994;DHT22;34804;49.214;12.276;2023-12-29T03:44:05;7.30;84.70
48994;DHT22;34804;49.214;12.276;2023-12-29T03:46:33;7.30;84.80
48994;DHT22;34804;49.214;12.276;2023-12-29T03:49:00;7.30;84.70
48994;DHT22;34804;49.214;12.276;2023-12-29T03:51:27;7.20;84.60
48994;DHT22;34804;49.214;12.276;2023-12-29T03:53:54;7.20;84.70
48994;DHT22;34804;49.214;12.276;2023-12-29T03:56:21;7.10;84.80
48994;DHT22;34804;49.214;12.276;2023-12-29T03:58:47;7.10;84.80
48994;DHT22;34804;49.214;12.276;2023-12-29T04:01:16;7.00;84.90
48994;DHT22;34804;49.214;12.276;2023-12-29T04:03:43;6.80;85.40
48994;DHT22;34804;49.214;12.276;2023-12-29T04:06:10;6.90;85.50
48994;DHT22;34804;49.214;12.276;2023-12-29T04:08:38;6.80;85.70
48994;DHT22;34804;49.214;12.276;2023-12-29T04:11:05;6.70;85.90
48994;DHT22;34804;49.214;12.276;2023-12-29T04:13:32;6.80;85.80
48994;DHT22;34804;49.214;12.276;2023-12-29T04:15:59;6.70;86.00
48994;DHT22;34804;49.214;12.276;2023-12-29T04:18:26;6.70;86.10
48994;DHT22;34804;49.214;12.276;2023-12-29T04:20:53;6.80;85.90
48994;DHT22;34804;49.214;12.276;2023-12-29T04:23:20;6.80;85.60
48994;DHT22;34804;49.214;12.276;2023-12-29T04:25:47;6.80;85.80
48994;DHT22;34804;49.214;12.276;2023-12-29T04:28:14;6.80;85.70
48994;DHT22;34804;49.214;12.276;2023-12-29T04:30:41;6.70;86.00
48994;DHT22;34804;49.214;12.276;2023-12-29T04:33:07;6.50;86.10
48994;DHT22;34804;49.214;12.276;2023-12-29T04:35:34;6.60;86.10
48994;DHT22;34804;49.214;12.276;2023-12-29T04:38:01;6.60;85.90
48994;DHT22;34804;49.214;12.276;2023-12-29T04:40:29;6.60;86.00
48994;DHT22;34804;49.214;12.276;2023-12-29T04:42:55;6.50;85.80
48994;DHT22;34804;49.214;12.276;2023-12-29T04:45:22;6.50;85.90
48994;DHT22;34804;49.214;12.276;2023-12-29T04:47:49;6.50;86.00
48994;DHT22;34804;49.214;12.276;2023-12-29T04:50:16;6.40;86.40
48994;DHT22;34804;49.214;12.276;2023-12-29T04:52:43;6.40;86.20
48994;DHT22;34804;49.214;12.276;2023-12-29T04:55:09;6.30;86.40
48994;DHT22;34804;49.214;12.276;2023-12-29T04:57:36;6.40;86.40
48994;DHT22;34804;49.214;12.276;2023-12-29T05:00:03;6.40;86.30
48994;DHT22;34804;49.214;12.276;2023-12-29T05:02:31;6.40;86.30
48994;DHT22;34804;49.214;12.276;2023-12-29T05:04:58;6.30;86.30
48994;DHT22;34804;49.214;12.276;2023-12-29T05:07:26;6.30;86.00
48994;DHT22;34804;49.214;12.276;2023-12-29T05:09:53;6.30;86.30
48994;DHT22;34804;49.214;12.276;2023-12-29T05:12:20;6.30;86.40
48994;DHT22;34804;49.214;12.276;2023-12-29T05:14:47;6.40;86.00
48994;DHT22;34804;49.214;12.276;2023-12-29T05:17:14;6.40;86.30
48994;DHT22;34804;49.214;12.276;2023-12-29T05:19:41;6.40;86.20
48994;DHT22;34804;49.214;12.276;2023-12-29T05:22:08;6.50;85.80
48994;DHT22;34804;49.214;12.276;2023-12-29T05:24:35;6.50;85.80
48994;DHT22;34804;49.214;12.276;2023-12-29T05:27:02;6.40;85.60
48994;DHT22;34804;49.214;12.276;2023-12-29T05:29:29;6.40;86.00
48994;DHT22;34804;49.214;12.276;2023-12-29T05:31:56;6.40;86.00
48994;DHT22;34804;49.214;12.276;2023-12-29T05:34:23;6.40;85.70
48994;DHT22;34804;49.214;12.276;2023-12-29T05:36:50;6.40;86.10
48994;DHT22;34804;49.214;12.276;2023-12-29T05:39:17;6.40;85.80
48994;DHT22;34804;49.214;12.276;2023-12-29T05:41:43;6.40;85.80
48994;DHT22;34804;49.214;12.276;2023-12-29T05:44:10;6.40;85.80
48994;DHT22;34804;49.214;12.276;2023-12-29T05:46:37;6.40;86.00
48994;DHT22;34804;49.214;12.276;2023-12-29T05:49:04;6.30;86.10
48994;DHT22;34804;49.214;12.276;2023-12-29T05:51:31;6.30;86.10
48994;DHT22;34804;49.214;12.276;2023-12-29T05:53:58;6.40;86.20
48994;DHT22;34804;49.214;12.276;2023-12-29T05:56:25;6.40;86.10
48994;DHT22;34804;49.214;12.276;2023-12-29T05:58:52;6.50;85.90
48994;DHT22;34804;49.214;12.276;2023-12-29T06:01:19;6.60;85.50
48994;DHT22;34804;49.214;12.276;2023-12-29T06:03:46;6.50;85.50
48994;DHT22;34804;49.214;12.276;2023-12-29T06:06:14;6.40;85.60
48994;DHT22;34804;49.214;12.276;2023-12-29T06:08:40;6.30;85.70
48994;DHT22;34804;49.214;12.276;2023-12-29T06:11:07;6.10;86.10
48994;DHT22;34804;49.214;12.276;2023-12-29T06:13:34;6.20;86.80
48994;DHT22;34804;49.214;12.276;2023-12-29T06:16:01;6.30;86.80
48994;DHT22;34804;49.214;12.276;2023-12-29T06:18:28;6.30;86.80
48994;DHT22;34804;49.214;12.276;2023-12-29T06:20:55;6.30;86.90
48994;DHT22;34804;49.214;12.276;2023-12-29T06:23:22;6.30;86.80
48994;DHT22;34804;49.214;12.276;2023-12-29T06:25:49;6.30;86.40
48994;DHT22;34804;49.214;12.276;2023-12-29T06:28:16;6.20;86.80
48994;DHT22;34804;49.214;12.276;2023-12-29T06:30:43;6.20;86.60
48994;DHT22;34804;49.214;12.276;2023-12-29T06:33:10;6.20;86.90
48994;DHT22;34804;49.214;12.276;2023-12-29T06:35:37;6.20;86.70
48994;DHT22;34804;49.214;12.276;2023-12-29T06:38:05;6.10;86.70
48994;DHT22;34804;49.214;12.276;2023-12-29T06:40:32;6.10;87.10
48994;DHT22;34804;49.214;12.276;2023-12-29T06:42:59;6.10;86.90
48994;DHT22;34804;49.214;12.276;2023-12-29T06:45:26;6.10;87.10
48994;DHT22;34804;49.214;12.276;2023-12-29T06:47:52;5.90;86.80
48994;DHT22;34804;49.214;12.276;2023-12-29T06:50:19;5.80;87.10
48994;DHT22;34804;49.214;12.276;2023-12-29T06:52:46;5.80;87.30
48994;DHT22;34804;49.214;12.276;2023-12-29T06:55:13;5.80;87.70
48994;DHT22;34804;49.214;12.276;2023-12-29T06:57:40;5.80;87.70
48994;DHT22;34804;49.214;12.276;2023-12-29T07:00:07;5.80;87.60
48994;DHT22;34804;49.214;12.276;2023-12-29T07:02:38;5.80;87.60
48994;DHT22;34804;49.214;12.276;2023-12-29T07:05:05;5.90;87.60
48994;DHT22;34804;49.214;12.276;2023-12-29T07:07:34;6.00;87.00
48994;DHT22;34804;49.214;12.276;2023-12-29T07:10:01;6.00;87.20
48994;DHT22;34804;49.214;12.276;2023-12-29T07:12:29;6.00;87.20
48994;DHT22;34804;49.214;12.276;2023-12-29T07:14:56;6.00;86.90
48994;DHT22;34804;49.214;12.276;2023-12-29T07:17:23;6.10;86.80
48994;DHT22;34804;49.214;12.276;2023-12-29T07:19:50;6.10;86.80
48994;DHT22;34804;49.214;12.276;2023-12-29T07:22:17;6.00;86.80
48994;DHT22;34804;49.214;12.276;2023-12-29T07:24:43;6.00;86.80
48994;DHT22;34804;49.214;12.276;2023-12-29T07:27:10;6.00;86.50
48994;DHT22;34804;49.214;12.276;2023-12-29T07:29:37;6.00;86.80
48994;DHT22;34804;49.214;12.276;2023-12-29T07:32:04;6.10;86.50
48994;DHT22;34804;49.214;12.276;2023-12-29T07:34:32;6.20;86.30
48994;DHT22;34804;49.214;12.276;2023-12-29T07:36:59;6.10;86.40
48994;DHT22;34804;49.214;12.276;2023-12-29T07:39:26;6.10;86.40
48994;DHT22;34804;49.214;12.276;2023-12-29T07:41:53;6.20;86.20
48994;DHT22;34804;49.214;12.276;2023-12-29T07:44:20;6.20;86.20
48994;DHT22;34804;49.214;12.276;2023-12-29T07:46:47;6.30;85.80
48994;DHT22;34804;49.214;12.276;2023-12-29T07:49:13;6.40;85.70
48994;DHT22;34804;49.214;12.276;2023-12-29T07:51:41;6.40;85.50
48994;DHT22;34804;49.214;12.276;2023-12-29T07:54:09;6.50;85.50
48994;DHT22;34804;49.214;12.276;2023-12-29T07:56:36;6.60;85.40
48994;DHT22;34804;49.214;12.276;2023-12-29T07:59:04;6.60;85.20
48994;DHT22;34804;49.214;12.276;2023-12-29T08:01:31;6.60;85.10
48994;DHT22;34804;49.214;12.276;2023-12-29T08:03:58;6.70;84.80
48994;DHT22;34804;49.214;12.276;2023-12-29T08:06:25;6.80;84.70
48994;DHT22;34804;49.214;12.276;2023-12-29T08:08:53;6.80;84.60
48994;DHT22;34804;49.214;12.276;2023-12-29T08:11:20;6.80;84.70
48994;DHT22;34804;49.214;12.276;2023-12-29T08:13:48;6.90;84.50
48994;DHT22;34804;49.214;12.276;2023-12-29T08:16:16;6.80;84.40
48994;DHT22;34804;49.214;12.276;2023-12-29T08:18:49;6.80;84.30
48994;DHT22;34804;49.214;12.276;2023-12-29T08:21:19;6.90;84.10
48994;DHT22;34804;49.214;12.276;2023-12-29T08:23:47;6.90;84.20
48994;DHT22;34804;49.214;12.276;2023-12-29T08:26:14;6.80;84.30
48994;DHT22;34804;49.214;12.276;2023-12-29T08:28:41;6.80;84.30
48994;DHT22;34804;49.214;12.276;2023-12-29T08:31:09;6.90;84.20
48994;DHT22;34804;49.214;12.276;2023-12-29T08:33:36;6.90;84.40
48994;DHT22;34804;49.214;12.276;2023-12-29T08:36:04;6.90;84.00
48994;DHT22;34804;49.214;12.276;2023-12-29T08:38:31;7.00;83.80
48994;DHT22;34804;49.214;12.276;2023-12-29T08:40:59;7.10;83.40
48994;DHT22;34804;49.214;12.276;2023-12-29T08:43:26;7.20;83.10
48994;DHT22;34804;49.214;12.276;2023-12-29T08:45:53;7.30;83.30
48994;DHT22;34804;49.214;12.276;2023-12-29T08:48:21;7.30;82.80
48994;DHT22;34804;49.214;12.276;2023-12-29T08:50:49;7.40;83.00
48994;DHT22;34804;49.214;12.276;2023-12-29T08:53:16;7.50;82.50
48994;DHT22;34804;49.214;12.276;2023-12-29T08:55:44;7.70;83.40
48994;DHT22;34804;49.214;12.276;2023-12-29T08:58:11;7.90;82.30
48994;DHT22;34804;49.214;12.276;2023-12-29T09:00:38;8.00;81.30
48994;DHT22;34804;49.214;12.276;2023-12-29T09:03:05;8.10;80.80
48994;DHT22;34804;49.214;12.276;2023-12-29T09:05:32;8.00;80.60
48994;DHT22;34804;49.214;12.276;2023-12-29T09:07:59;8.00;80.70
48994;DHT22;34804;49.214;12.276;2023-12-29T09:10:27;7.90;81.20
48994;DHT22;34804;49.214;12.276;2023-12-29T09:12:53;8.00;81.30
48994;DHT22;34804;49.214;12.276;2023-12-29T09:15:20;8.00;80.90
48994;DHT22;34804;49.214;12.276;2023-12-29T09:17:47;8.00;80.60
48994;DHT22;34804;49.214;12.276;2023-12-29T09:20:14;8.20;80.90
48994;DHT22;34804;49.214;12.276;2023-12-29T09:22:41;8.30;80.50
48994;DHT22;34804;49.214;12.276;2023-12-29T09:25:08;8.40;80.80
48994;DHT22;34804;49.214;12.276;2023-12-29T09:27:36;8.50;80.20
48994;DHT22;34804;49.214;12.276;2023-12-29T09:30:04;8.60;79.20
48994;DHT22;34804;49.214;12.276;2023-12-29T09:32:32;8.60;79.90
48994;DHT22;34804;49.214;12.276;2023-12-29T09:34:59;8.60;79.60
48994;DHT22;34804;49.214;12.276;2023-12-29T09:37:26;8.80;79.80
48994;DHT22;34804;49.214;12.276;2023-12-29T09:39:53;8.80;80.00
48994;DHT22;34804;49.214;12.276;2023-12-29T09:42:21;8.90;79.80
48994;DHT22;34804;49.214;12.276;2023-12-29T09:44:51;8.90;79.10
48994;DHT22;34804;49.214;12.276;2023-12-29T09:47:22;8.90;79.60
48994;DHT22;34804;49.214;12.276;2023-12-29T09:49:52;8.80;79.50
48994;DHT22;34804;49.214;12.276;2023-12-29T09:52:22;8.70;79.60
48994;DHT22;34804;49.214;12.276;2023-12-29T09:54:52;8.80;79.60
48994;DHT22;34804;49.214;12.276;2023-12-29T09:57:20;9.00;79.20
48994;DHT22;34804;49.214;12.276;2023-12-29T09:59:48;9.30;78.50
48994;DHT22;34804;49.214;12.276;2023-12-29T10:02:20;9.50;79.70
48994;DHT22;34804;49.214;12.276;2023-12-29T10:04:49;9.50;77.60
48994;DHT22;34804;49.214;12.276;2023-12-29T10:07:26;9.50;77.90
48994;DHT22;34804;49.214;12.276;2023-12-29T10:09:55;9.40;79.40
48994;DHT22;34804;49.214;12.276;2023-12-29T10:12:24;9.40;78.80
48994;DHT22;34804;49.214;12.276;2023-12-29T10:15:04;9.30;78.20
48994;DHT22;34804;49.214;12.276;2023-12-29T10:17:52;9.30;78.80
48994;DHT22;34804;49.214;12.276;2023-12-29T10:23:13;9.20;79.70
48994;DHT22;34804;49.214;12.276;2023-12-29T10:25:44;9.10;80.10
48994;DHT22;34804;49.214;12.276;2023-12-29T10:28:13;9.00;79.70
48994;DHT22;34804;49.214;12.276;2023-12-29T10:30:40;9.00;80.10
48994;DHT22;34804;49.214;12.276;2023-12-29T10:33:07;9.00;79.90
48994;DHT22;34804;49.214;12.276;2023-12-29T10:35:36;8.90;80.70
48994;DHT22;34804;49.214;12.276;2023-12-29T10:38:09;9.00;80.20
48994;DHT22;34804;49.214;12.276;2023-12-29T10:40:37;9.10;79.90
48994;DHT22;34804;49.214;12.276;2023-12-29T10:43:05;9.10;80.30
48994;DHT22;34804;49.214;12.276;2023-12-29T10:45:35;9.10;80.30
48994;DHT22;34804;49.214;12.276;2023-12-29T10:48:05;9.10;80.90
48994;DHT22;34804;49.214;12.276;2023-12-29T10:50:43;9.20;80.20
48994;DHT22;34804;49.214;12.276;2023-12-29T10:53:13;9.30;80.70
48994;DHT22;34804;49.214;12.276;2023-12-29T10:55:40;9.30;80.20
48994;DHT22;34804;49.214;12.276;2023-12-29T10:58:08;9.30;79.80
48994;DHT22;34804;49.214;12.276;2023-12-29T11:00:35;9.30;80.10
48994;DHT22;34804;49.214;12.276;2023-12-29T11:03:03;9.30;80.40
48994;DHT22;34804;49.214;12.276;2023-12-29T11:05:33;9.30;79.70
48994;DHT22;34804;49.214;12.276;2023-12-29T11:08:00;9.30;81.00
48994;DHT22;34804;49.214;12.276;2023-12-29T11:10:28;9.30;80.30
48994;DHT22;34804;49.214;12.276;2023-12-29T11:12:56;9.30;79.80
48994;DHT22;34804;49.214;12.276;2023-12-29T11:15:24;9.30;80.00
48994;DHT22;34804;49.214;12.276;2023-12-29T11:17:53;9.40;80.10
48994;DHT22;34804;49.214;12.276;2023-12-29T11:20:22;9.40;80.50
48994;DHT22;34804;49.214;12.276;2023-12-29T11:22:49;9.40;82.10
48994;DHT22;34804;49.214;12.276;2023-12-29T11:25:17;9.40;81.40
48994;DHT22;34804;49.214;12.276;2023-12-29T11:27:44;9.30;80.90
48994;DHT22;34804;49.214;12.276;2023-12-29T11:30:14;9.30;82.90
48994;DHT22;34804;49.214;12.276;2023-12-29T11:32:58;9.30;82.60
48994;DHT22;34804;49.214;12.276;2023-12-29T11:35:32;9.20;83.70
48994;DHT22;34804;49.214;12.276;2023-12-29T11:43:17;9.00;83.90
48994;DHT22;34804;49.214;12.276;2023-12-29T11:45:45;9.10;84.80
48994;DHT22;34804;49.214;12.276;2023-12-29T11:48:12;9.10;85.20
48994;DHT22;34804;49.214;12.276;2023-12-29T11:50:40;9.20;84.70
48994;DHT22;34804;49.214;12.276;2023-12-29T11:53:07;9.40;84.30
48994;DHT22;34804;49.214;12.276;2023-12-29T11:55:37;9.40;84.00
48994;DHT22;34804;49.214;12.276;2023-12-29T11:58:23;9.40;84.00
48994;DHT22;34804;49.214;12.276;2023-12-29T12:00:51;9.40;84.20
48994;DHT22;34804;49.214;12.276;2023-12-29T12:03:27;9.40;84.10
48994;DHT22;34804;49.214;12.276;2023-12-29T12:05:55;9.40;84.60
48994;DHT22;34804;49.214;12.276;2023-12-29T12:08:31;9.40;84.70
48994;DHT22;34804;49.214;12.276;2023-12-29T12:13:58;9.50;83.30
48994;DHT22;34804;49.214;12.276;2023-12-29T12:19:13;9.70;83.00
48994;DHT22;34804;49.214;12.276;2023-12-29T12:21:41;9.60;82.40
48994;DHT22;34804;49.214;12.276;2023-12-29T12:24:08;9.70;82.40
48994;DHT22;34804;49.214;12.276;2023-12-29T12:26:35;9.90;81.90
48994;DHT22;34804;49.214;12.276;2023-12-29T12:29:03;10.10;80.70
48994;DHT22;34804;49.214;12.276;2023-12-29T12:31:30;10.40;80.40
48994;DHT22;34804;49.214;12.276;2023-12-29T12:33:57;10.60;79.50
48994;DHT22;34804;49.214;12.276;2023-12-29T12:36:24;10.80;79.50
48994;DHT22;34804;49.214;12.276;2023-12-29T12:38:57;10.80;80.30
48994;DHT22;34804;49.214;12.276;2023-12-29T12:41:26;10.80;78.90
48994;DHT22;34804;49.214;12.276;2023-12-29T12:44:03;10.60;79.10
48994;DHT22;34804;49.214;12.276;2023-12-29T12:46:35;10.30;80.10
48994;DHT22;34804;49.214;12.276;2023-12-29T12:49:04;10.00;80.50
48994;DHT22;34804;49.214;12.276;2023-12-29T12:51:33;9.90;81.30
48994;DHT22;34804;49.214;12.276;2023-12-29T12:54:00;9.80;81.70
48994;DHT22;34804;49.214;12.276;2023-12-29T12:56:31;9.60;82.00
48994;DHT22;34804;49.214;12.276;2023-12-29T12:58:58;9.60;81.90
48994;DHT22;34804;49.214;12.276;2023-12-29T13:01:25;9.50;82.10
48994;DHT22;34804;49.214;12.276;2023-12-29T13:03:54;9.60;82.30
48994;DHT22;34804;49.214;12.276;2023-12-29T13:06:22;9.60;82.30
48994;DHT22;34804;49.214;12.276;2023-12-29T13:08:52;9.60;82.10
48994;DHT22;34804;49.214;12.276;2023-12-29T13:11:23;9.70;82.10
48994;DHT22;34804;49.214;12.276;2023-12-29T13:13:52;9.80;81.30
48994;DHT22;34804;49.214;12.276;2023-12-29T13:21:55;9.80;82.00
48994;DHT22;34804;49.214;12.276;2023-12-29T13:24:24;9.80;82.40
48994;DHT22;34804;49.214;12.276;2023-12-29T13:27:02;9.80;82.50
48994;DHT22;34804;49.214;12.276;2023-12-29T13:29:29;9.80;82.30
48994;DHT22;34804;49.214;12.276;2023-12-29T13:32:22;9.80;83.20
48994;DHT22;34804;49.214;12.276;2023-12-29T13:35:03;9.80;82.30
48994;DHT22;34804;49.214;12.276;2023-12-29T13:37:49;9.80;82.30
48994;DHT22;34804;49.214;12.276;2023-12-29T13:43:03;9.80;82.70
48994;DHT22;34804;49.214;12.276;2023-12-29T13:45:34;9.80;82.30
48994;DHT22;34804;49.214;12.276;2023-12-29T13:48:03;9.80;82.50
48994;DHT22;34804;49.214;12.276;2023-12-29T13:50:30;9.80;82.50
48994;DHT22;34804;49.214;12.276;2023-12-29T13:52:57;9.80;82.30
48994;DHT22;34804;49.214;12.276;2023-12-29T13:55:25;9.90;81.60
48994;DHT22;34804;49.214;12.276;2023-12-29T13:57:52;10.00;81.50
48994;DHT22;34804;49.214;12.276;2023-12-29T14:00:21;10.00;81.80
48994;DHT22;34804;49.214;12.276;2023-12-29T14:02:58;10.00;81.40
48994;DHT22;34804;49.214;12.276;2023-12-29T14:05:48;10.10;80.30
48994;DHT22;34804;49.214;12.276;2023-12-29T14:08:41;10.20;80.30
48994;DHT22;34804;49.214;12.276;2023-12-29T14:11:09;10.20;79.90
48994;DHT22;34804;49.214;12.276;2023-12-29T14:13:45;10.30;79.70
48994;DHT22;34804;49.214;12.276;2023-12-29T14:16:14;10.20;79.90
48994;DHT22;34804;49.214;12.276;2023-12-29T14:26:28;10.00;80.20
48994;DHT22;34804;49.214;12.276;2023-12-29T14:29:09;9.90;79.90
48994;DHT22;34804;49.214;12.276;2023-12-29T14:31:40;9.90;80.10
48994;DHT22;34804;49.214;12.276;2023-12-29T14:34:08;9.80;80.60
48994;DHT22;34804;49.214;12.276;2023-12-29T14:36:41;9.70;81.00
48994;DHT22;34804;49.214;12.276;2023-12-29T14:39:09;9.60;81.20
48994;DHT22;34804;49.214;12.276;2023-12-29T14:41:39;9.60;81.30
48994;DHT22;34804;49.214;12.276;2023-12-29T14:44:06;9.60;81.20
48994;DHT22;34804;49.214;12.276;2023-12-29T14:46:34;9.60;81.10
48994;DHT22;34804;49.214;12.276;2023-12-29T14:49:03;9.60;81.10
48994;DHT22;34804;49.214;12.276;2023-12-29T14:51:31;9.60;80.90
48994;DHT22;34804;49.214;12.276;2023-12-29T14:53:58;9.60;80.90
48994;DHT22;34804;49.214;12.276;2023-12-29T14:56:25;9.50;81.40
48994;DHT22;34804;49.214;12.276;2023-12-29T14:58:52;9.40;81.70
48994;DHT22;34804;49.214;12.276;2023-12-29T15:01:19;9.30;82.00
48994;DHT22;34804;49.214;12.276;2023-12-29T15:03:46;9.20;82.00
48994;DHT22;34804;49.214;12.276;2023-12-29T15:06:13;9.20;82.10
48994;DHT22;34804;49.214;12.276;2023-12-29T15:08:40;9.20;82.10
48994;DHT22;34804;49.214;12.276;2023-12-29T15:11:08;9.10;82.20
48994;DHT22;34804;49.214;12.276;2023-12-29T15:13:35;9.10;82.70
48994;DHT22;34804;49.214;12.276;2023-12-29T15:16:02;9.00;82.80
48994;DHT22;34804;49.214;12.276;2023-12-29T15:18:30;8.90;83.00
48994;DHT22;34804;49.214;12.276;2023-12-29T15:20:58;8.70;83.30
48994;DHT22;34804;49.214;12.276;2023-12-29T15:23:25;8.70;83.80
48994;DHT22;34804;49.214;12.276;2023-12-29T15:25:57;8.60;83.80
48994;DHT22;34804;49.214;12.276;2023-12-29T15:28:24;8.60;84.00
48994;DHT22;34804;49.214;12.276;2023-12-29T15:30:51;8.60;84.20
48994;DHT22;34804;49.214;12.276;2023-12-29T15:33:18;8.50;84.50
48994;DHT22;34804;49.214;12.276;2023-12-29T15:35:46;8.40;84.60
48994;DHT22;34804;49.214;12.276;2023-12-29T15:38:13;8.40;84.60
48994;DHT22;34804;49.214;12.276;2023-12-29T15:40:41;8.40;84.90
48994;DHT22;34804;49.214;12.276;2023-12-29T15:43:07;8.30;85.00
48994;DHT22;34804;49.214;12.276;2023-12-29T15:45:35;8.30;85.10
48994;DHT22;34804;49.214;12.276;2023-12-29T15:48:03;8.30;85.00
48994;DHT22;34804;49.214;12.276;2023-12-29T15:50:31;8.30;85.20
48994;DHT22;34804;49.214;12.276;2023-12-29T15:52:58;8.20;85.40
48994;DHT22;34804;49.214;12.276;2023-12-29T15:55:25;8.20;85.50
48994;DHT22;34804;49.214;12.276;2023-12-29T15:57:52;8.20;85.40
48994;DHT22;34804;49.214;12.276;2023-12-29T16:00:20;8.20;85.30
48994;DHT22;34804;49.214;12.276;2023-12-29T16:02:50;8.20;85.20
48994;DHT22;34804;49.214;12.276;2023-12-29T16:05:17;8.10;85.10
48994;DHT22;34804;49.214;12.276;2023-12-29T16:07:44;8.10;85.50
48994;DHT22;34804;49.214;12.276;2023-12-29T16:10:10;8.10;85.60